Forside
METAR-TAF:

METAR-TAF

Lufthavne :

Xi'an, Kina

Breddekreds: 34-26N, længdekreds: 108-45E, højde: 479 m

Aktuelle vejr

Denne rapport blev lavet for 27 minutter siden, kl. 14:00 UTC
Vind 2 kt fra varierende retninger
Temperatur 11°C
Fugtighed 71%
Tryk 1016 hPa
Sigt 10 km eller mere
ingen skyer under 1500m og ingen cumulonimbus

METAR: ZLXY 311400Z VRB01MPS CAVOK 11/06 Q1016 NOSIG

Tid: 22:27 (14:27 UTC)

Vejrudsigter

Denne rapport blev lavet for 5 timer og 25 minutter siden, kl. 09:02 UTC
Foreløbig gælder fra 31 på 12 UTC til 01 på 12 UTC
Vind 6 kt fra østnordøst
Sigt: 3000 m
tåge/dis

TAF: ZLXY 310902Z 3112/0112 06003MPS 3000 HZ NSC TX18/0108Z TN09/3122Z

Vejrobservationer og prognoser fra mere end 4000 lufthavne (METAR og TAF).

De gule og røde prikker repræsenterer de meteorologiske stationer.

Flyt musen over at se navnet på stationen.

Så klik over at se vejr observationer og prognoser.

At skifte det kort: Klik på de grønne knapper med et sort kors for at zoome ind; på den grønne knap med en bindestreg for at zoome ud; eller på de grønne pile for tilstødende kort.


METAR-TAF: